Time;durP1;ratioP1;P1;durP2;ratioP2;P2;SDS_P1;SDS_P2;PMS_P1;PMS_P2;Temp;Humidity;BMP_temperature;BMP_pressure;BME280_temperature;BME280_humidity;BME280_pressure;Samples;Min_cycle;Max_cycle;Signal;HPM_P1;HPM_P2
2022/08/24 00:02:18;;;;;;;13.63;6.80;;;;;;;;;;3364376;42;20096;-57
2022/08/24 00:04:44;;;;;;;13.55;6.72;;;;;;;;;;3367074;42;20130;-57
2022/08/24 00:07:10;;;;;;;16.73;6.97;;;;;;;;;;3368074;42;20076;-57
2022/08/24 00:09:36;;;;;;;14.57;6.50;;;;;;;;;;3367604;42;20092;-57
2022/08/24 00:12:03;;;;;;;15.60;6.93;;;;;;;;;;3368198;42;20151;-58
2022/08/24 00:14:30;;;;;;;13.70;6.78;;;;;;;;;;3367904;42;20178;-57
2022/08/24 00:16:56;;;;;;;13.77;6.72;;;;;;;;;;3366423;42;20613;-58
2022/08/24 00:19:23;;;;;;;13.43;6.93;;;;;;;;;;3367943;42;20102;-59
2022/08/24 00:21:50;;;;;;;16.52;7.75;;;;;;;;;;3367638;42;20096;-59
2022/08/24 00:24:16;;;;;;;15.27;7.18;;;;;;;;;;3367498;42;20618;-58
2022/08/24 00:26:42;;;;;;;16.83;7.53;;;;;;;;;;3367816;42;20569;-59
2022/08/24 00:29:08;;;;;;;16.33;7.63;;;;;;;;;;3367661;42;20087;-65
2022/08/24 00:31:34;;;;;;;17.30;7.67;;;;;;;;;;3367630;42;20168;-60
2022/08/24 00:34:00;;;;;;;15.18;7.40;;;;;;;;;;3367840;42;20107;-59
2022/08/24 00:36:26;;;;;;;17.27;7.82;;;;;;;;;;3367425;42;20565;-58
2022/08/24 00:38:52;;;;;;;17.55;7.82;;;;;;;;;;3367593;42;20691;-60
2022/08/24 00:41:18;;;;;;;18.83;8.30;;;;;;;;;;3366189;42;20143;-58
2022/08/24 00:44:01;;;;;;;16.70;8.10;;;;;;;;;;3367284;42;20578;-59
2022/08/24 00:46:42;;;;;;;17.13;8.02;;;;;;;;;;3367969;42;20084;-57
2022/08/24 00:49:46;;;;;;;14.75;7.15;;;;;;;;;;3366091;42;20150;-58
2022/08/24 00:52:34;;;;;;;19.30;8.68;;;;;;;;;;3351394;42;20131;-59
2022/08/24 00:55:09;;;;;;;21.27;7.90;;;;;;;;;;3366030;42;20087;-59
2022/08/24 00:57:38;;;;;;;16.35;7.03;;;;;;;;;;3365935;42;20151;-60
2022/08/24 01:00:12;;;;;;;17.92;7.85;;;;;;;;;;3367339;42;20575;-60
2022/08/24 01:02:40;;;;;;;16.50;7.85;;;;;;;;;;3367206;42;20162;-59
2022/08/24 01:05:08;;;;;;;16.67;8.07;;;;;;;;;;3367354;42;20092;-59
2022/08/24 01:07:34;;;;;;;20.70;8.27;;;;;;;;;;3365646;42;20135;-58
2022/08/24 01:10:03;;;;;;;18.55;7.97;;;;;;;;;;3367213;42;20087;-59
2022/08/24 01:12:30;;;;;;;18.88;8.25;;;;;;;;;;3365585;42;20102;-58
2022/08/24 01:14:57;;;;;;;19.90;8.18;;;;;;;;;;3365791;42;20649;-57
2022/08/24 01:20:08;;;;;;;18.93;7.77;;;;;;;;;;3366210;42;20576;-59
2022/08/24 01:22:45;;;;;;;19.60;8.13;;;;;;;;;;3365555;42;20106;-58
2022/08/24 01:25:11;;;;;;;22.00;7.95;;;;;;;;;;3365694;42;20096;-58
2022/08/24 01:27:37;;;;;;;17.45;7.72;;;;;;;;;;3366968;42;20102;-57
2022/08/24 01:30:06;;;;;;;21.20;7.97;;;;;;;;;;3365638;42;20158;-58
2022/08/24 01:32:32;;;;;;;17.00;8.00;;;;;;;;;;3365486;42;20107;-59
2022/08/24 01:34:58;;;;;;;20.63;8.32;;;;;;;;;;3367591;42;20147;-58
2022/08/24 01:37:24;;;;;;;18.20;8.13;;;;;;;;;;3369048;42;20238;-60
2022/08/24 01:39:52;;;;;;;17.08;7.72;;;;;;;;;;3367157;42;20088;-59
2022/08/24 01:42:18;;;;;;;18.20;7.90;;;;;;;;;;3365722;42;20629;-59
2022/08/24 01:44:44;;;;;;;14.70;7.50;;;;;;;;;;3365583;42;20104;-58
2022/08/24 01:47:11;;;;;;;16.13;7.72;;;;;;;;;;3365538;42;20516;-58
2022/08/24 01:49:40;;;;;;;17.10;7.72;;;;;;;;;;3365204;42;20200;-57
2022/08/24 01:52:06;;;;;;;17.00;7.50;;;;;;;;;;3367250;42;20083;-57
2022/08/24 01:54:32;;;;;;;17.80;7.50;;;;;;;;;;3367095;42;20244;-58
2022/08/24 01:56:58;;;;;;;18.00;7.78;;;;;;;;;;3367783;42;20139;-57
2022/08/24 01:59:25;;;;;;;17.83;7.68;;;;;;;;;;3366451;42;20099;-57
2022/08/24 02:01:55;;;;;;;18.63;7.50;;;;;;;;;;3371612;42;20092;-58
2022/08/24 02:04:22;;;;;;;14.70;7.22;;;;;;;;;;3366494;42;20084;-58
2022/08/24 02:06:48;;;;;;;15.83;7.33;;;;;;;;;;3366586;42;20084;-58
2022/08/24 02:09:14;;;;;;;14.95;7.07;;;;;;;;;;3366682;42;20110;-58
2022/08/24 02:11:40;;;;;;;14.93;7.70;;;;;;;;;;3366549;42;20114;-58
2022/08/24 02:14:06;;;;;;;14.63;6.97;;;;;;;;;;3366468;42;20555;-58
2022/08/24 02:16:32;;;;;;;14.27;7.07;;;;;;;;;;3366609;42;20173;-57
2022/08/24 02:18:58;;;;;;;15.70;7.07;;;;;;;;;;3366304;42;20099;-57
2022/08/24 02:21:24;;;;;;;16.05;7.68;;;;;;;;;;3361226;42;20501;-58
2022/08/24 02:23:50;;;;;;;14.55;7.55;;;;;;;;;;3360427;42;20096;-59
2022/08/24 02:26:16;;;;;;;17.13;7.30;;;;;;;;;;3362655;42;20573;-57
2022/08/24 02:28:42;;;;;;;16.40;7.17;;;;;;;;;;3357303;42;20563;-58
2022/08/24 02:31:09;;;;;;;16.80;7.40;;;;;;;;;;3364885;42;20099;-58
2022/08/24 02:33:36;;;;;;;17.02;7.40;;;;;;;;;;3360929;42;20096;-58
2022/08/24 02:36:02;;;;;;;14.50;7.40;;;;;;;;;;3362755;42;20092;-59
2022/08/24 02:38:28;;;;;;;15.02;7.45;;;;;;;;;;3366175;42;20656;-58
2022/08/24 02:40:56;;;;;;;14.83;7.00;;;;;;;;;;3366299;42;20656;-58
2022/08/24 02:43:23;;;;;;;14.73;7.53;;;;;;;;;;3366399;42;20103;-58
2022/08/24 02:45:49;;;;;;;14.95;7.82;;;;;;;;;;3364723;42;20174;-61
2022/08/24 02:48:15;;;;;;;12.80;7.47;;;;;;;;;;3364795;42;20139;-58
2022/08/24 02:50:43;;;;;;;15.90;6.93;;;;;;;;;;3364593;42;20095;-57
2022/08/24 02:53:09;;;;;;;17.07;7.40;;;;;;;;;;3366500;42;20287;-62
2022/08/24 02:55:35;;;;;;;18.20;7.97;;;;;;;;;;3365899;42;20087;-60
2022/08/24 02:58:01;;;;;;;15.93;7.40;;;;;;;;;;3364904;42;20137;-61
2022/08/24 03:00:27;;;;;;;15.43;6.97;;;;;;;;;;3366000;42;20091;-58
2022/08/24 03:02:53;;;;;;;15.43;8.10;;;;;;;;;;3366303;42;20098;-59
2022/08/24 03:05:20;;;;;;;20.92;8.18;;;;;;;;;;3364640;42;20103;-59
2022/08/24 03:07:46;;;;;;;18.15;7.78;;;;;;;;;;3366034;42;20096;-58
2022/08/24 03:10:12;;;;;;;18.08;8.65;;;;;;;;;;3365835;42;20102;-59
2022/08/24 03:12:38;;;;;;;18.13;7.88;;;;;;;;;;3366243;42;20091;-59
2022/08/24 03:15:05;;;;;;;19.77;8.57;;;;;;;;;;3365805;42;20131;-60
2022/08/24 03:17:32;;;;;;;18.67;8.73;;;;;;;;;;3365829;42;20115;-59
2022/08/24 03:19:59;;;;;;;18.95;7.78;;;;;;;;;;3365656;42;20147;-59
2022/08/24 03:22:25;;;;;;;21.58;8.65;;;;;;;;;;3363836;42;20159;-58
2022/08/24 03:24:51;;;;;;;19.13;8.52;;;;;;;;;;3365975;42;20076;-58
2022/08/24 03:27:17;;;;;;;16.83;8.93;;;;;;;;;;3365896;42;20105;-57
2022/08/24 03:29:43;;;;;;;16.58;7.65;;;;;;;;;;3365888;42;20087;-58
2022/08/24 03:32:09;;;;;;;19.75;8.55;;;;;;;;;;3366205;42;20490;-58
2022/08/24 03:34:36;;;;;;;19.38;8.27;;;;;;;;;;3365491;42;20088;-59
2022/08/24 03:37:02;;;;;;;16.25;8.07;;;;;;;;;;3365479;42;20092;-58
2022/08/24 03:39:28;;;;;;;21.40;9.60;;;;;;;;;;3366695;42;20140;-57
2022/08/24 03:41:54;;;;;;;19.38;8.82;;;;;;;;;;3367529;42;20095;-58
2022/08/24 03:44:20;;;;;;;20.63;8.80;;;;;;;;;;3367427;42;20102;-57
2022/08/24 03:46:46;;;;;;;20.27;9.07;;;;;;;;;;3367410;42;20584;-58
2022/08/24 03:49:13;;;;;;;20.90;9.27;;;;;;;;;;3367316;42;20088;-59
2022/08/24 03:51:39;;;;;;;17.90;8.35;;;;;;;;;;3367374;42;20127;-58
2022/08/24 03:54:06;;;;;;;41.35;9.70;;;;;;;;;;3367694;42;20110;-59
2022/08/24 03:56:32;;;;;;;21.15;8.90;;;;;;;;;;3367313;42;20092;-59
2022/08/24 03:58:58;;;;;;;21.63;9.70;;;;;;;;;;3367450;42;20222;-58
2022/08/24 04:01:24;;;;;;;20.73;9.27;;;;;;;;;;3367630;42;20685;-58
2022/08/24 04:03:53;;;;;;;19.52;10.02;;;;;;;;;;3365787;42;20096;-59
2022/08/24 04:06:19;;;;;;;27.05;11.35;;;;;;;;;;3367545;42;20175;-59
2022/08/24 04:08:45;;;;;;;24.53;10.97;;;;;;;;;;3365843;42;20147;-58
2022/08/24 04:11:25;;;;;;;26.02;10.20;;;;;;;;;;3367297;42;20562;-57
2022/08/24 04:13:55;;;;;;;33.92;12.15;;;;;;;;;;3366659;42;20124;-59
2022/08/24 04:16:21;;;;;;;32.78;12.35;;;;;;;;;;3366816;42;20099;-60
2022/08/24 04:18:47;;;;;;;36.85;12.02;;;;;;;;;;3366962;42;20103;-60
2022/08/24 04:21:27;;;;;;;31.17;12.50;;;;;;;;;;3367114;42;20103;-59
2022/08/24 04:23:53;;;;;;;27.30;11.27;;;;;;;;;;3367080;42;20215;-58
2022/08/24 04:26:20;;;;;;;33.22;12.93;;;;;;;;;;3364939;42;20084;-56
2022/08/24 04:28:46;;;;;;;26.83;11.25;;;;;;;;;;3365084;42;20125;-58
2022/08/24 04:31:13;;;;;;;33.55;12.10;;;;;;;;;;3366981;42;20147;-58
2022/08/24 04:33:40;;;;;;;23.50;11.00;;;;;;;;;;3367031;42;20158;-58
2022/08/24 04:36:18;;;;;;;29.83;11.65;;;;;;;;;;3359657;42;20135;-59
2022/08/24 04:38:45;;;;;;;21.42;10.25;;;;;;;;;;3365507;42;20585;-58
2022/08/24 04:41:12;;;;;;;25.20;10.93;;;;;;;;;;3366812;42;20095;-59
2022/08/24 04:43:38;;;;;;;24.02;10.98;;;;;;;;;;3366926;42;20099;-59
2022/08/24 04:46:05;;;;;;;22.53;11.03;;;;;;;;;;3367585;42;20087;-60
2022/08/24 04:48:31;;;;;;;21.35;9.93;;;;;;;;;;3366339;42;20143;-57
2022/08/24 04:51:01;;;;;;;22.73;10.35;;;;;;;;;;3365217;42;20135;-62
2022/08/24 04:53:27;;;;;;;20.58;8.95;;;;;;;;;;3367154;42;20905;-59
2022/08/24 04:55:53;;;;;;;24.97;9.90;;;;;;;;;;3366739;42;20871;-60
2022/08/24 04:58:19;;;;;;;25.27;11.00;;;;;;;;;;3366814;42;20207;-57
2022/08/24 05:00:45;;;;;;;34.80;11.45;;;;;;;;;;3367903;42;20108;-59
2022/08/24 05:03:11;;;;;;;29.75;11.52;;;;;;;;;;3365602;42;20158;-59
2022/08/24 05:05:41;;;;;;;28.90;12.27;;;;;;;;;;3364839;42;20084;-59
2022/08/24 05:08:08;;;;;;;30.52;12.60;;;;;;;;;;3365581;42;20084;-59
2022/08/24 05:10:34;;;;;;;27.27;12.50;;;;;;;;;;3366504;42;20974;-59
2022/08/24 05:13:00;;;;;;;25.40;11.35;;;;;;;;;;3366672;42;20165;-60
2022/08/24 05:15:26;;;;;;;29.40;11.85;;;;;;;;;;3366894;42;20092;-58
2022/08/24 05:17:51;;;;;;;29.77;11.97;;;;;;;;;;3366780;42;20095;-60
2022/08/24 05:20:17;;;;;;;24.08;11.13;;;;;;;;;;3364914;42;20084;-59
2022/08/24 05:22:43;;;;;;;28.75;11.68;;;;;;;;;;3366517;42;20088;-59
2022/08/24 05:25:09;;;;;;;26.58;12.48;;;;;;;;;;3366766;42;20093;-59
2022/08/24 05:27:35;;;;;;;24.00;11.13;;;;;;;;;;3366458;42;20099;-59
2022/08/24 05:30:02;;;;;;;25.55;11.13;;;;;;;;;;3366688;42;20079;-59
2022/08/24 05:32:27;;;;;;;28.65;12.02;;;;;;;;;;3366403;42;20558;-58
2022/08/24 05:34:53;;;;;;;35.43;14.07;;;;;;;;;;3366129;42;20103;-59
2022/08/24 05:37:19;;;;;;;33.03;15.23;;;;;;;;;;3366311;42;20143;-57
2022/08/24 05:39:45;;;;;;;23.67;10.35;;;;;;;;;;3366380;42;20162;-58
2022/08/24 05:42:12;;;;;;;26.15;10.65;;;;;;;;;;3365998;42;20083;-59
2022/08/24 05:44:38;;;;;;;26.17;10.20;;;;;;;;;;3366145;42;20518;-58
2022/08/24 05:47:04;;;;;;;23.38;9.38;;;;;;;;;;3365327;42;20656;-59
2022/08/24 05:49:30;;;;;;;23.55;9.32;;;;;;;;;;3365944;42;20123;-57
2022/08/24 05:51:56;;;;;;;23.60;10.05;;;;;;;;;;3366294;42;20538;-59
2022/08/24 05:54:25;;;;;;;24.10;8.83;;;;;;;;;;3366344;42;20095;-61
2022/08/24 05:56:51;;;;;;;24.90;10.18;;;;;;;;;;3366085;42;20088;-59
2022/08/24 05:59:18;;;;;;;35.75;12.98;;;;;;;;;;3366088;42;20147;-59
2022/08/24 06:01:44;;;;;;;33.42;13.80;;;;;;;;;;3364369;42;20157;-57
2022/08/24 06:04:11;;;;;;;36.80;14.07;;;;;;;;;;3366462;42;20150;-57
2022/08/24 06:06:37;;;;;;;36.83;13.60;;;;;;;;;;3365819;42;20598;-59
2022/08/24 06:09:03;;;;;;;43.38;15.48;;;;;;;;;;3366085;42;20088;-59
2022/08/24 06:11:32;;;;;;;38.63;14.20;;;;;;;;;;3365723;42;20499;-58
2022/08/24 06:14:00;;;;;;;35.58;13.55;;;;;;;;;;3364480;42;20087;-59
2022/08/24 06:16:26;;;;;;;40.47;14.60;;;;;;;;;;3365914;42;20652;-59
2022/08/24 06:18:52;;;;;;;33.93;13.63;;;;;;;;;;3365918;42;20127;-60
2022/08/24 06:21:24;;;;;;;38.25;13.60;;;;;;;;;;3365821;42;20171;-59
2022/08/24 06:23:50;;;;;;;34.42;14.65;;;;;;;;;;3364435;42;20092;-66
2022/08/24 06:29:01;;;;;;;36.08;15.57;;;;;;;;;;3364946;42;20147;-60
2022/08/24 06:31:27;;;;;;;31.00;14.63;;;;;;;;;;3364510;42;20505;-58
2022/08/24 06:33:54;;;;;;;31.30;15.75;;;;;;;;;;3365101;42;20084;-59
2022/08/24 06:36:20;;;;;;;31.10;15.25;;;;;;;;;;3365497;42;20471;-59
2022/08/24 06:38:46;;;;;;;37.80;17.02;;;;;;;;;;3365482;42;20090;-59
2022/08/24 06:41:13;;;;;;;40.13;16.70;;;;;;;;;;3364689;42;20161;-58
2022/08/24 06:43:39;;;;;;;40.60;16.57;;;;;;;;;;3365881;42;20134;-58
2022/08/24 06:46:05;;;;;;;41.97;17.83;;;;;;;;;;3365917;42;20490;-59
2022/08/24 06:48:31;;;;;;;43.92;18.20;;;;;;;;;;3365469;42;20110;-58
2022/08/24 06:50:57;;;;;;;38.67;17.63;;;;;;;;;;3360664;42;20099;-57
2022/08/24 06:53:23;;;;;;;33.95;14.18;;;;;;;;;;3361969;42;20866;-57
2022/08/24 06:55:54;;;;;;;36.40;15.37;;;;;;;;;;3359872;42;20854;-58
2022/08/24 06:58:20;;;;;;;40.97;16.80;;;;;;;;;;3360913;42;20161;-58
2022/08/24 07:00:46;;;;;;;33.35;13.73;;;;;;;;;;3361863;42;20084;-59
2022/08/24 07:03:13;;;;;;;28.92;13.82;;;;;;;;;;3362138;42;20103;-60
2022/08/24 07:05:39;;;;;;;29.67;12.23;;;;;;;;;;3362922;42;20166;-57
2022/08/24 07:08:06;;;;;;;29.90;13.10;;;;;;;;;;3361712;42;20143;-58
2022/08/24 07:10:33;;;;;;;19.05;8.35;;;;;;;;;;3365427;42;20084;-56
2022/08/24 07:12:59;;;;;;;13.82;5.50;;;;;;;;;;3361024;42;20102;-58
2022/08/24 07:15:26;;;;;;;17.23;5.75;;;;;;;;;;3360845;42;20136;-57
2022/08/24 07:17:53;;;;;;;18.27;7.65;;;;;;;;;;3360892;42;20501;-58
2022/08/24 07:20:19;;;;;;;19.80;6.90;;;;;;;;;;3366431;42;20167;-57
2022/08/24 07:22:45;;;;;;;13.93;5.68;;;;;;;;;;3363194;42;20247;-58
2022/08/24 07:25:11;;;;;;;8.82;4.05;;;;;;;;;;3359945;42;20565;-57
2022/08/24 07:27:38;;;;;;;14.10;4.65;;;;;;;;;;3361397;42;20562;-57
2022/08/24 07:30:05;;;;;;;26.40;9.70;;;;;;;;;;3361410;42;20143;-58
2022/08/24 07:32:32;;;;;;;12.60;4.80;;;;;;;;;;3360891;42;20230;-58
2022/08/24 07:34:59;;;;;;;13.13;4.90;;;;;;;;;;3362477;42;20107;-58
2022/08/24 07:37:25;;;;;;;12.93;4.38;;;;;;;;;;3360496;42;20088;-58
2022/08/24 07:39:51;;;;;;;9.73;4.30;;;;;;;;;;3362275;42;20115;-57
2022/08/24 07:42:17;;;;;;;11.40;4.50;;;;;;;;;;3361451;42;20135;-58
2022/08/24 07:44:43;;;;;;;18.65;7.50;;;;;;;;;;3360243;42;20475;-57
2022/08/24 07:47:09;;;;;;;10.93;4.90;;;;;;;;;;3360642;42;20782;-58
2022/08/24 07:49:35;;;;;;;9.23;4.43;;;;;;;;;;3359160;42;20107;-58
2022/08/24 07:52:01;;;;;;;9.27;4.73;;;;;;;;;;3365200;42;20143;-58
2022/08/24 07:54:27;;;;;;;11.70;5.20;;;;;;;;;;3362283;42;20088;-57
2022/08/24 07:56:54;;;;;;;12.38;4.70;;;;;;;;;;3362329;42;20084;-56
2022/08/24 07:59:20;;;;;;;10.38;4.97;;;;;;;;;;3364989;42;20709;-58
2022/08/24 08:01:46;;;;;;;8.18;3.90;;;;;;;;;;3364509;42;20080;-58
2022/08/24 08:04:13;;;;;;;11.30;5.03;;;;;;;;;;3365273;42;20076;-58
2022/08/24 08:06:40;;;;;;;10.27;4.90;;;;;;;;;;3365483;42;20601;-56
2022/08/24 08:09:06;;;;;;;10.18;4.70;;;;;;;;;;3364219;42;20537;-59
2022/08/24 08:11:32;;;;;;;11.68;5.15;;;;;;;;;;3360467;42;20989;-58
2022/08/24 08:13:58;;;;;;;11.37;4.80;;;;;;;;;;3359759;42;20080;-58
2022/08/24 08:16:25;;;;;;;11.15;4.00;;;;;;;;;;3361882;42;20594;-58
2022/08/24 08:18:51;;;;;;;10.52;4.93;;;;;;;;;;3361366;42;20135;-56
2022/08/24 08:24:13;;;;;;;10.60;4.43;;;;;;;;;;3360773;42;20103;-57
2022/08/24 08:26:40;;;;;;;10.33;4.53;;;;;;;;;;3364048;42;20208;-58
2022/08/24 08:29:07;;;;;;;10.65;4.60;;;;;;;;;;3363411;42;20234;-58
2022/08/24 08:31:33;;;;;;;8.80;3.80;;;;;;;;;;3365382;42;20572;-58
2022/08/24 08:33:58;;;;;;;11.02;4.40;;;;;;;;;;3366982;42;20551;-58
2022/08/24 08:36:25;;;;;;;9.33;3.80;;;;;;;;;;3366964;42;20111;-56
2022/08/24 08:38:51;;;;;;;9.77;4.13;;;;;;;;;;3366861;42;20477;-55
2022/08/24 08:41:42;;;;;;;10.90;4.10;;;;;;;;;;3367134;42;20586;-57
2022/08/24 08:44:16;;;;;;;10.45;4.50;;;;;;;;;;3356637;42;20112;-56
2022/08/24 08:47:17;;;;;;;19.27;4.82;;;;;;;;;;3365639;42;20548;-58
2022/08/24 08:50:04;;;;;;;9.70;4.10;;;;;;;;;;3351188;42;20683;-57
2022/08/24 08:53:07;;;;;;;10.98;4.30;;;;;;;;;;3367525;42;20080;-58
2022/08/24 08:55:38;;;;;;;8.85;4.07;;;;;;;;;;3362761;42;20118;-58
2022/08/24 08:58:10;;;;;;;8.88;3.90;;;;;;;;;;3367537;42;20102;-57
2022/08/24 09:00:51;;;;;;;8.15;4.00;;;;;;;;;;3367617;42;20202;-56
2022/08/24 09:03:52;;;;;;;9.73;3.73;;;;;;;;;;3360704;42;20083;-58
2022/08/24 09:06:34;;;;;;;12.15;4.13;;;;;;;;;;3358272;42;20157;-57
2022/08/24 09:09:37;;;;;;;29.15;4.13;;;;;;;;;;3362737;42;20119;-56
2022/08/24 09:12:13;;;;;;;9.63;3.53;;;;;;;;;;3367083;42;20103;-58
2022/08/24 09:15:17;;;;;;;8.82;3.80;;;;;;;;;;3365644;42;20194;-58
2022/08/24 09:17:51;;;;;;;7.83;3.30;;;;;;;;;;3367177;42;20155;-58
2022/08/24 09:20:27;;;;;;;7.60;3.15;;;;;;;;;;3367069;42;20091;-57
2022/08/24 09:23:11;;;;;;;7.25;3.08;;;;;;;;;;3367074;42;20084;-57
2022/08/24 09:26:08;;;;;;;8.02;3.13;;;;;;;;;;3365828;42;20095;-59
2022/08/24 09:29:29;;;;;;;7.15;3.63;;;;;;;;;;3363717;42;20147;-57
2022/08/24 09:32:07;;;;;;;7.33;3.73;;;;;;;;;;3351253;42;20110;-58
2022/08/24 09:34:34;;;;;;;6.07;3.15;;;;;;;;;;3365652;42;20092;-59
2022/08/24 09:37:19;;;;;;;8.68;3.40;;;;;;;;;;3364341;42;20183;-58
2022/08/24 09:39:56;;;;;;;7.43;3.60;;;;;;;;;;3361261;42;20602;-58
2022/08/24 09:42:32;;;;;;;8.73;3.70;;;;;;;;;;3361892;42;20084;-59
2022/08/24 09:45:35;;;;;;;9.00;3.90;;;;;;;;;;3367845;42;20095;-57
2022/08/24 09:48:26;;;;;;;12.43;3.53;;;;;;;;;;3366715;42;20094;-58
2022/08/24 09:51:07;;;;;;;8.95;3.80;;;;;;;;;;3363703;42;20155;-57
2022/08/24 09:54:05;;;;;;;8.05;3.70;;;;;;;;;;3365416;42;20640;-57
2022/08/24 09:57:05;;;;;;;8.68;3.45;;;;;;;;;;3365716;42;20096;-57
2022/08/24 09:59:57;;;;;;;8.00;3.37;;;;;;;;;;3363791;42;20501;-56
2022/08/24 10:02:42;;;;;;;8.52;3.53;;;;;;;;;;3364157;42;20135;-58
2022/08/24 10:05:30;;;;;;;7.97;3.67;;;;;;;;;;3362856;42;20111;-58
2022/08/24 10:08:24;;;;;;;7.35;3.58;;;;;;;;;;3362294;42;20767;-58
2022/08/24 10:11:41;;;;;;;9.43;3.40;;;;;;;;;;3360903;42;20091;-63
2022/08/24 10:14:40;;;;;;;15.90;3.60;;;;;;;;;;3356112;42;20100;-58
2022/08/24 10:17:27;;;;;;;9.55;3.00;;;;;;;;;;3364446;42;20147;-60
2022/08/24 10:20:16;;;;;;;7.55;3.20;;;;;;;;;;3362287;42;20746;-57
2022/08/24 10:23:07;;;;;;;7.22;3.20;;;;;;;;;;3366251;42;20629;-57
2022/08/24 10:25:50;;;;;;;8.80;3.30;;;;;;;;;;3366005;42;20084;-57
2022/08/24 10:28:38;;;;;;;8.47;3.50;;;;;;;;;;3365561;42;20131;-56
2022/08/24 10:31:13;;;;;;;7.90;3.65;;;;;;;;;;3366643;42;20098;-58
2022/08/24 10:33:58;;;;;;;7.53;3.50;;;;;;;;;;3364841;42;20096;-59
2022/08/24 10:36:42;;;;;;;7.68;3.80;;;;;;;;;;3364814;42;20148;-57
2022/08/24 10:39:45;;;;;;;9.07;3.92;;;;;;;;;;3366623;42;20147;-56
2022/08/24 10:45:45;;;;;;;8.88;3.65;;;;;;;;;;3360594;42;20103;-61
2022/08/24 10:48:28;;;;;;;9.10;3.50;;;;;;;;;;3362715;42;20168;-57
2022/08/24 10:51:27;;;;;;;8.18;3.40;;;;;;;;;;3364213;42;20100;-57
2022/08/24 10:53:53;;;;;;;7.70;3.42;;;;;;;;;;3365605;42;20170;-56
2022/08/24 10:56:51;;;;;;;9.60;3.37;;;;;;;;;;3365602;42;20092;-56
2022/08/24 10:59:28;;;;;;;10.23;3.90;;;;;;;;;;3357536;42;20628;-57
2022/08/24 11:02:05;;;;;;;10.70;3.63;;;;;;;;;;3364780;42;20096;-57
2022/08/24 11:04:32;;;;;;;9.40;3.72;;;;;;;;;;3367040;42;20558;-56
2022/08/24 11:07:06;;;;;;;8.57;3.90;;;;;;;;;;3366043;42;20099;-58
2022/08/24 11:09:52;;;;;;;6.67;3.47;;;;;;;;;;3365714;42;20173;-57
2022/08/24 11:12:30;;;;;;;9.63;3.67;;;;;;;;;;3364854;42;20111;-57
2022/08/24 11:15:22;;;;;;;7.63;3.85;;;;;;;;;;3366030;42;20151;-57
2022/08/24 11:17:59;;;;;;;8.40;3.50;;;;;;;;;;3365889;42;20092;-57
2022/08/24 11:20:31;;;;;;;9.50;4.00;;;;;;;;;;3363178;42;20104;-56
2022/08/24 11:23:01;;;;;;;7.67;3.57;;;;;;;;;;3364951;42;20095;-58
2022/08/24 11:25:28;;;;;;;7.78;4.03;;;;;;;;;;3367775;42;20141;-54
2022/08/24 11:28:08;;;;;;;9.75;3.75;;;;;;;;;;3363942;42;20518;-56
2022/08/24 11:30:36;;;;;;;8.23;3.63;;;;;;;;;;3364925;42;20095;-56
2022/08/24 11:33:03;;;;;;;8.27;3.70;;;;;;;;;;3364628;42;20091;-55
2022/08/24 11:35:33;;;;;;;8.97;3.77;;;;;;;;;;3364688;42;20209;-54
2022/08/24 11:38:18;;;;;;;7.93;3.50;;;;;;;;;;3362167;42;20099;-56
2022/08/24 11:41:15;;;;;;;7.43;3.60;;;;;;;;;;3363539;42;20100;-54
2022/08/24 11:44:00;;;;;;;9.55;3.92;;;;;;;;;;3360141;42;20555;-57
2022/08/24 11:46:49;;;;;;;7.75;3.75;;;;;;;;;;3360925;42;20135;-58
2022/08/24 11:49:31;;;;;;;8.33;3.90;;;;;;;;;;3363022;42;20210;-57
2022/08/24 11:52:25;;;;;;;7.72;4.07;;;;;;;;;;3363004;42;20103;-58
2022/08/24 11:54:57;;;;;;;9.07;3.95;;;;;;;;;;3360312;42;20195;-53
2022/08/24 11:57:38;;;;;;;8.15;3.45;;;;;;;;;;3360891;42;20514;-54
2022/08/24 12:00:14;;;;;;;7.80;3.40;;;;;;;;;;3364387;42;20088;-58
2022/08/24 12:03:02;;;;;;;9.50;3.50;;;;;;;;;;3362355;42;20183;-58
2022/08/24 12:05:42;;;;;;;7.53;3.38;;;;;;;;;;3361176;42;20092;-57
2022/08/24 12:08:22;;;;;;;8.10;3.40;;;;;;;;;;3369238;42;20177;-58
2022/08/24 12:11:17;;;;;;;7.10;2.90;;;;;;;;;;3363243;42;20568;-58
2022/08/24 12:14:23;;;;;;;7.70;2.80;;;;;;;;;;3363920;42;20110;-56
2022/08/24 12:16:56;;;;;;;7.13;3.17;;;;;;;;;;3357919;42;20099;-56
2022/08/24 12:19:36;;;;;;;7.68;3.10;;;;;;;;;;3363149;42;20103;-56
2022/08/24 12:22:06;;;;;;;6.45;3.13;;;;;;;;;;3366109;42;20122;-58
2022/08/24 12:24:38;;;;;;;8.18;3.15;;;;;;;;;;3366410;42;20558;-57
2022/08/24 12:27:27;;;;;;;8.85;3.55;;;;;;;;;;3366323;42;20142;-60
2022/08/24 12:30:06;;;;;;;6.97;3.10;;;;;;;;;;3362086;42;20140;-57
2022/08/24 12:32:41;;;;;;;8.25;3.45;;;;;;;;;;3365162;42;20134;-56
2022/08/24 12:35:25;;;;;;;6.80;3.30;;;;;;;;;;3366050;42;20102;-58
2022/08/24 12:37:57;;;;;;;6.63;3.00;;;;;;;;;;3359528;42;20088;-53
2022/08/24 12:40:25;;;;;;;9.30;3.13;;;;;;;;;;3367581;42;20108;-56
2022/08/24 12:42:57;;;;;;;8.20;2.97;;;;;;;;;;3365599;42;20092;-55
2022/08/24 12:45:23;;;;;;;10.55;3.10;;;;;;;;;;3365666;42;20096;-53
2022/08/24 12:47:58;;;;;;;7.35;2.90;;;;;;;;;;3366456;42;20080;-55
2022/08/24 12:50:32;;;;;;;6.68;2.70;;;;;;;;;;3367044;42;20162;-58
2022/08/24 12:53:22;;;;;;;9.32;2.80;;;;;;;;;;3366677;42;20118;-56
2022/08/24 12:56:19;;;;;;;8.30;3.13;;;;;;;;;;3365369;42;20139;-59
2022/08/24 12:59:00;;;;;;;7.40;2.95;;;;;;;;;;3367192;42;20163;-57
2022/08/24 13:01:32;;;;;;;15.27;3.45;;;;;;;;;;3367132;42;20162;-56
2022/08/24 13:04:23;;;;;;;8.55;2.55;;;;;;;;;;3365544;42;20131;-60
2022/08/24 13:06:51;;;;;;;6.80;2.83;;;;;;;;;;3351661;42;20551;-56
2022/08/24 13:09:29;;;;;;;7.60;2.67;;;;;;;;;;3365676;42;20106;-57
2022/08/24 13:11:56;;;;;;;8.23;3.20;;;;;;;;;;3366635;42;20157;-56
2022/08/24 13:14:26;;;;;;;6.57;2.88;;;;;;;;;;3367220;42;20206;-57
2022/08/24 13:16:55;;;;;;;6.93;2.58;;;;;;;;;;3360744;42;20096;-62
2022/08/24 13:19:30;;;;;;;6.47;2.50;;;;;;;;;;3363780;42;20104;-60
2022/08/24 13:22:19;;;;;;;7.73;2.97;;;;;;;;;;3364340;42;20138;-59
2022/08/24 13:24:48;;;;;;;6.95;2.72;;;;;;;;;;3362258;42;20185;-57
2022/08/24 13:27:14;;;;;;;7.40;2.63;;;;;;;;;;3366750;42;20087;-56
2022/08/24 13:29:42;;;;;;;8.77;3.53;;;;;;;;;;3366852;42;20126;-58
2022/08/24 13:32:16;;;;;;;9.25;3.92;;;;;;;;;;3363941;42;20612;-59
2022/08/24 13:34:46;;;;;;;8.70;4.00;;;;;;;;;;3364098;42;20088;-56
2022/08/24 13:37:16;;;;;;;6.90;2.97;;;;;;;;;;3363366;42;20105;-59
2022/08/24 13:39:49;;;;;;;7.75;3.30;;;;;;;;;;3365039;42;20099;-60
2022/08/24 13:42:34;;;;;;;7.35;3.20;;;;;;;;;;3364069;42;20095;-58
2022/08/24 13:45:17;;;;;;;19.27;3.70;;;;;;;;;;3365018;42;20158;-57
2022/08/24 13:48:02;;;;;;;7.67;3.40;;;;;;;;;;3363212;42;20102;-57
2022/08/24 13:51:01;;;;;;;8.50;3.38;;;;;;;;;;3367264;42;20098;-60
2022/08/24 13:53:52;;;;;;;7.75;3.10;;;;;;;;;;3357920;42;20099;-61
2022/08/24 13:56:36;;;;;;;9.73;3.22;;;;;;;;;;3363100;42;20107;-61
2022/08/24 13:59:07;;;;;;;7.97;3.20;;;;;;;;;;3361349;42;20572;-62
2022/08/24 14:01:37;;;;;;;24.13;4.37;;;;;;;;;;3361233;42;20088;-62
2022/08/24 14:04:09;;;;;;;8.32;3.60;;;;;;;;;;3361456;42;20088;-61
2022/08/24 14:06:50;;;;;;;8.05;3.13;;;;;;;;;;3362989;42;20076;-60
2022/08/24 14:09:15;;;;;;;19.92;3.80;;;;;;;;;;3363783;42;20189;-61
2022/08/24 14:11:47;;;;;;;7.70;3.30;;;;;;;;;;3364587;42;20099;-59
2022/08/24 14:14:21;;;;;;;9.35;3.38;;;;;;;;;;3366463;42;20076;-62
2022/08/24 14:19:55;;;;;;;7.05;2.78;;;;;;;;;;3357772;42;20131;-60
2022/08/24 14:22:52;;;;;;;7.50;3.15;;;;;;;;;;3361183;42;20112;-59
2022/08/24 14:25:20;;;;;;;9.17;3.97;;;;;;;;;;3362960;42;20080;-62
2022/08/24 14:27:49;;;;;;;8.95;3.22;;;;;;;;;;3361429;42;20091;-60
2022/08/24 14:30:18;;;;;;;8.98;3.45;;;;;;;;;;3361657;42;20084;-60
2022/08/24 14:32:45;;;;;;;7.35;2.88;;;;;;;;;;3365140;42;20162;-62
2022/08/24 14:35:18;;;;;;;7.72;2.83;;;;;;;;;;3365286;42;20497;-60
2022/08/24 14:38:09;;;;;;;7.20;3.10;;;;;;;;;;3352260;42;20096;-59
2022/08/24 14:41:16;;;;;;;9.82;3.15;;;;;;;;;;3361412;42;20633;-60
2022/08/24 14:44:04;;;;;;;9.82;3.47;;;;;;;;;;3318080;42;20166;-59
2022/08/24 14:46:39;;;;;;;14.05;3.97;;;;;;;;;;3319614;42;20863;-60
2022/08/24 14:49:20;;;;;;;14.95;4.18;;;;;;;;;;3350104;42;20088;-60
2022/08/24 14:51:59;;;;;;;13.37;3.57;;;;;;;;;;3360928;42;20092;-61
2022/08/24 14:54:43;;;;;;;8.23;3.10;;;;;;;;;;3360405;42;20084;-59
2022/08/24 14:57:23;;;;;;;13.80;4.03;;;;;;;;;;3363542;42;20127;-60
2022/08/24 14:59:49;;;;;;;9.55;3.58;;;;;;;;;;3363224;42;20091;-61
2022/08/24 15:02:37;;;;;;;10.27;4.13;;;;;;;;;;3362882;42;20092;-60
2022/08/24 15:05:22;;;;;;;10.00;3.50;;;;;;;;;;3363211;42;20677;-59
2022/08/24 15:08:12;;;;;;;9.40;3.60;;;;;;;;;;3362110;42;20131;-60
2022/08/24 15:11:26;;;;;;;8.90;3.58;;;;;;;;;;3364410;42;20513;-61
2022/08/24 15:14:04;;;;;;;8.68;3.10;;;;;;;;;;3363102;42;20084;-60
2022/08/24 15:16:37;;;;;;;11.93;3.40;;;;;;;;;;3363691;42;20083;-60
2022/08/24 15:19:21;;;;;;;7.17;3.20;;;;;;;;;;3363645;42;20092;-60
2022/08/24 15:21:47;;;;;;;11.00;3.72;;;;;;;;;;3358041;42;20539;-61
2022/08/24 15:24:31;;;;;;;13.05;3.03;;;;;;;;;;3364219;42;20100;-60